Time;durP1;ratioP1;P1;durP2;ratioP2;P2;SDS_P1;SDS_P2;PMS_P1;PMS_P2;Temp;Humidity;BMP_temperature;BMP_pressure;BME280_temperature;BME280_humidity;BME280_pressure;Samples;Min_cycle;Max_cycle;Signal;HPM_P1;HPM_P2
2023/05/20 00:00:21;;;;;;;11.07;8.18;;;20.40;55.00;;;;;;8230571;28;20042;-82
2023/05/20 00:04:22;;;;;;;;;;;20.50;55.10;;;;;;8219478;28;20026;-82
2023/05/20 00:08:22;;;;;;;16.07;8.60;;;20.40;55.00;;;;;;8234951;28;19960;-83
2023/05/20 00:12:23;;;;;;;11.15;8.25;;;20.40;55.00;;;;;;8218357;28;20035;-82
2023/05/20 00:16:24;;;;;;;11.43;8.77;;;20.50;55.00;;;;;;8235770;28;20439;-82
2023/05/20 00:20:24;;;;;;;10.20;8.05;;;20.40;55.50;;;;;;8218292;28;20045;-82
2023/05/20 00:24:26;;;;;;;11.88;8.45;;;20.50;55.00;;;;;;8234357;28;20489;-82
2023/05/20 00:28:27;;;;;;;10.07;7.70;;;20.50;55.00;;;;;;8234310;28;20043;-82
2023/05/20 00:32:27;;;;;;;11.70;8.85;;;20.50;55.00;;;;;;8234242;28;20090;-83
2023/05/20 00:36:28;;;;;;;9.15;7.35;;;20.50;55.10;;;;;;8202651;28;20416;-82
2023/05/20 00:40:29;;;;;;;15.18;9.00;;;20.50;55.00;;;;;;8237501;28;20120;-82
2023/05/20 00:44:29;;;;;;;12.15;7.75;;;20.50;55.00;;;;;;8220515;28;20035;-81
2023/05/20 00:48:44;;;;;;;10.65;8.13;;;20.50;55.00;;;;;;8235639;28;20034;-82
2023/05/20 00:52:47;;;;;;;11.02;7.80;;;20.50;55.10;;;;;;8260773;28;20036;-82
2023/05/20 00:56:47;;;;;;;10.27;7.35;;;20.50;55.10;;;;;;8257550;28;20038;-82
2023/05/20 01:00:49;;;;;;;10.35;7.28;;;20.50;55.10;;;;;;8275342;28;20038;-82
2023/05/20 01:04:49;;;;;;;9.15;7.03;;;20.40;55.10;;;;;;8243205;28;20039;-82
2023/05/20 01:08:50;;;;;;;9.40;7.13;;;20.40;55.10;;;;;;8275504;28;20218;-81
2023/05/20 01:12:55;;;;;;;10.55;7.32;;;20.40;55.10;;;;;;8258973;28;20023;-81
2023/05/20 01:17:01;;;;;;;11.00;7.80;;;20.40;55.20;;;;;;8274226;28;20050;-81
2023/05/20 01:21:02;;;;;;;11.68;7.72;;;20.40;55.40;;;;;;8236468;28;20508;-81
2023/05/20 01:25:04;;;;;;;15.23;8.50;;;20.40;57.20;;;;;;8234443;28;20070;-81
2023/05/20 01:29:04;;;;;;;15.65;9.88;;;20.30;58.90;;;;;;8202066;28;20134;-82
2023/05/20 01:33:10;;;;;;;15.88;9.45;;;20.30;61.50;;;;;;8232259;28;20512;-81
2023/05/20 01:37:12;;;;;;;13.52;8.00;;;20.30;63.50;;;;;;8232485;28;20456;-81
2023/05/20 01:41:13;;;;;;;12.88;7.57;;;20.30;60.60;;;;;;8233003;28;20039;-81
2023/05/20 01:45:13;;;;;;;14.52;7.35;;;20.40;59.70;;;;;;8215262;28;20520;-81
2023/05/20 01:49:14;;;;;;;10.57;7.70;;;20.40;59.00;;;;;;8215074;28;20400;-80
2023/05/20 01:53:15;;;;;;;14.88;7.40;;;20.40;58.70;;;;;;8248083;28;20039;-80
2023/05/20 01:57:20;;;;;;;10.10;7.53;;;20.40;58.30;;;;;;8215106;28;20045;-81
2023/05/20 02:01:21;;;;;;;12.85;7.10;;;20.40;57.90;;;;;;8230394;28;20465;-81
2023/05/20 02:05:22;;;;;;;10.95;6.57;;;20.40;57.70;;;;;;8232330;28;20058;-81
2023/05/20 02:09:22;;;;;;;8.43;6.80;;;20.50;57.60;;;;;;8230675;28;20126;-82
2023/05/20 02:13:23;;;;;;;8.40;6.38;;;20.40;57.50;;;;;;8214717;28;20031;-82
2023/05/20 02:17:24;;;;;;;9.43;6.55;;;20.40;57.30;;;;;;8214803;28;20561;-82
2023/05/20 02:21:25;;;;;;;11.15;6.82;;;20.40;57.10;;;;;;8231497;28;20113;-82
2023/05/20 02:25:25;;;;;;;11.90;7.30;;;20.50;57.00;;;;;;8230829;28;20065;-82
2023/05/20 02:29:26;;;;;;;9.80;6.72;;;20.40;56.90;;;;;;8230178;28;20039;-81
2023/05/20 02:33:27;;;;;;;12.77;6.90;;;20.40;56.90;;;;;;8213772;28;20547;-82
2023/05/20 02:37:28;;;;;;;10.18;7.47;;;20.40;56.60;;;;;;8213667;28;20512;-82
2023/05/20 02:41:29;;;;;;;8.68;6.78;;;20.40;56.70;;;;;;8229775;28;20395;-81
2023/05/20 02:45:29;;;;;;;9.20;6.72;;;20.40;56.60;;;;;;8229537;28;20043;-82
2023/05/20 02:49:30;;;;;;;8.38;5.78;;;20.40;56.60;;;;;;8229404;28;20058;-82
2023/05/20 02:53:31;;;;;;;12.53;6.00;;;20.40;56.50;;;;;;8230291;28;20035;-81
2023/05/20 02:57:33;;;;;;;9.82;6.53;;;20.40;56.50;;;;;;8196803;28;20295;-82
2023/05/20 03:01:34;;;;;;;8.25;5.78;;;20.40;56.50;;;;;;8198048;28;20544;-81
2023/05/20 03:05:41;;;;;;;9.40;6.30;;;20.40;56.50;;;;;;8229234;28;20457;-82
2023/05/20 03:09:41;;;;;;;7.50;5.53;;;20.40;56.40;;;;;;8228993;28;20035;-82
2023/05/20 03:13:42;;;;;;;9.02;5.72;;;20.40;56.30;;;;;;8229041;28;20039;-82
2023/05/20 03:17:43;;;;;;;8.05;5.68;;;20.40;56.30;;;;;;8196885;28;20042;-82
2023/05/20 03:21:45;;;;;;;8.45;6.28;;;20.40;56.30;;;;;;8212947;28;20061;-82
2023/05/20 03:25:46;;;;;;;8.02;5.78;;;20.40;56.30;;;;;;8228963;28;20082;-81
2023/05/20 03:29:47;;;;;;;9.40;6.30;;;20.40;56.20;;;;;;8229697;28;20091;-82
2023/05/20 03:33:47;;;;;;;9.48;6.50;;;20.40;56.10;;;;;;8211798;28;20405;-82
2023/05/20 03:37:50;;;;;;;9.93;5.57;;;20.50;56.10;;;;;;8195892;28;20049;-82
2023/05/20 03:41:51;;;;;;;8.55;6.30;;;20.50;56.10;;;;;;8212846;28;20038;-81
2023/05/20 03:45:51;;;;;;;10.75;5.63;;;20.50;56.00;;;;;;8228371;28;20477;-81
2023/05/20 03:49:52;;;;;;;9.23;6.10;;;20.50;56.00;;;;;;8212692;28;20035;-82
2023/05/20 03:53:53;;;;;;;9.07;5.95;;;20.50;56.00;;;;;;8228318;28;20039;-81
2023/05/20 03:57:53;;;;;;;9.10;5.55;;;20.50;56.00;;;;;;8196186;28;20042;-82
2023/05/20 04:01:55;;;;;;;7.15;5.45;;;20.50;56.00;;;;;;8228024;28;20489;-83
2023/05/20 04:05:56;;;;;;;6.72;5.20;;;20.50;56.00;;;;;;8228063;28;20027;-82
2023/05/20 04:09:58;;;;;;;8.00;5.93;;;20.50;55.90;;;;;;8212688;28;20038;-82
2023/05/20 04:13:59;;;;;;;7.30;5.40;;;20.50;56.00;;;;;;8211885;28;20035;-82
2023/05/20 04:18:00;;;;;;;7.72;5.47;;;20.60;56.20;;;;;;8211337;28;20031;-82
2023/05/20 04:22:00;;;;;;;9.43;5.55;;;20.60;56.00;;;;;;8212004;28;20031;-82
2023/05/20 04:26:01;;;;;;;7.50;5.20;;;20.60;56.00;;;;;;8211291;28;20113;-80
2023/05/20 04:30:03;;;;;;;8.20;5.55;;;20.60;55.80;;;;;;8227562;28;20532;-81
2023/05/20 04:34:04;;;;;;;10.63;6.07;;;20.60;55.80;;;;;;8228691;28;20054;-81
2023/05/20 04:38:05;;;;;;;11.38;6.50;;;20.60;55.80;;;;;;8228704;28;20055;-80
2023/05/20 04:42:05;;;;;;;8.13;5.45;;;20.50;55.80;;;;;;8227541;28;20027;-81
2023/05/20 04:46:06;;;;;;;8.38;5.32;;;20.40;55.90;;;;;;8212919;28;20374;-80
2023/05/20 04:50:15;;;;;;;6.82;5.03;;;20.30;55.90;;;;;;8216588;28;20121;-81
2023/05/20 04:54:16;;;;;;;8.95;5.75;;;20.30;56.00;;;;;;8234417;28;20039;-81
2023/05/20 04:58:17;;;;;;;7.60;5.10;;;20.30;56.00;;;;;;8232369;28;20449;-80
2023/05/20 05:02:18;;;;;;;6.95;5.50;;;20.30;56.10;;;;;;8234078;28;20031;-80
2023/05/20 05:06:18;;;;;;;7.15;5.03;;;20.20;56.10;;;;;;8216439;28;20031;-80
2023/05/20 05:10:20;;;;;;;8.73;4.90;;;20.20;56.10;;;;;;8232480;28;20535;-79
2023/05/20 05:14:22;;;;;;;5.38;4.75;;;20.20;56.20;;;;;;8232410;28;20045;-79
2023/05/20 05:18:23;;;;;;;7.25;4.72;;;20.20;56.20;;;;;;8232112;28;20046;-79
2023/05/20 05:22:23;;;;;;;9.93;5.15;;;20.20;56.20;;;;;;8232118;28;20035;-79
2023/05/20 05:26:25;;;;;;;7.72;5.00;;;20.10;56.20;;;;;;8199910;28;20043;-79
2023/05/20 05:30:26;;;;;;;6.72;4.72;;;20.10;56.30;;;;;;8232317;28;20496;-79
2023/05/20 05:34:26;;;;;;;7.90;5.13;;;20.10;56.30;;;;;;8231621;28;20035;-79
2023/05/20 05:38:27;;;;;;;6.70;4.80;;;20.10;56.20;;;;;;8232947;28;20051;-79
2023/05/20 05:42:28;;;;;;;6.25;5.05;;;20.20;56.20;;;;;;8215250;28;20034;-79
2023/05/20 05:46:28;;;;;;;6.22;4.90;;;20.20;56.10;;;;;;8231367;28;20500;-79
2023/05/20 05:50:29;;;;;;;6.25;4.53;;;20.20;56.10;;;;;;8232486;28;20098;-79
2023/05/20 05:54:30;;;;;;;6.72;4.90;;;20.20;56.10;;;;;;8231217;28;20035;-80
2023/05/20 05:58:31;;;;;;;6.78;4.47;;;20.20;56.60;;;;;;8230045;28;20404;-79
2023/05/20 06:02:35;;;;;;;5.85;4.53;;;20.10;56.00;;;;;;8230686;28;20027;-79
2023/05/20 06:06:36;;;;;;;5.78;4.95;;;20.10;56.00;;;;;;8214888;28;20412;-79
2023/05/20 06:10:36;;;;;;;6.38;4.68;;;20.10;56.00;;;;;;8231715;28;20084;-79
2023/05/20 06:14:37;;;;;;;5.97;5.10;;;20.10;56.00;;;;;;8214655;28;20492;-79
2023/05/20 06:18:37;;;;;;;6.72;4.68;;;20.10;56.00;;;;;;8231577;28;20031;-79
2023/05/20 06:22:38;;;;;;;6.10;4.75;;;20.10;56.00;;;;;;8213670;28;20038;-79
2023/05/20 06:26:39;;;;;;;6.40;5.00;;;20.10;56.10;;;;;;8230320;28;20462;-79
2023/05/20 06:30:40;;;;;;;5.97;4.50;;;20.10;56.10;;;;;;8229966;28;20289;-79
2023/05/20 06:34:40;;;;;;;;;;;20.10;56.10;;;;;;8231738;28;20065;-79
2023/05/20 06:38:41;;;;;;;6.30;4.60;;;20.00;56.00;;;;;;8197624;28;19922;-80
2023/05/20 06:42:43;;;;;;;4.57;4.03;;;20.10;56.10;;;;;;8229617;28;20122;-79
2023/05/20 06:46:43;;;;;;;4.60;3.90;;;20.00;56.10;;;;;;8213530;28;20035;-79
2023/05/20 06:50:44;;;;;;;7.72;4.70;;;20.10;56.20;;;;;;8229623;28;20038;-79
2023/05/20 06:54:45;;;;;;;5.38;4.20;;;20.00;56.20;;;;;;8229531;28;20037;-79
2023/05/20 06:58:46;;;;;;;6.17;4.37;;;20.10;56.30;;;;;;8212923;28;20043;-79
2023/05/20 07:02:46;;;;;;;5.57;4.07;;;20.10;56.70;;;;;;8229074;28;20659;-79
2023/05/20 07:06:47;;;;;;;5.78;4.18;;;20.10;56.10;;;;;;8228868;28;20039;-79
2023/05/20 07:10:47;;;;;;;5.90;3.67;;;20.10;56.00;;;;;;8212509;28;20039;-79
2023/05/20 07:14:48;;;;;;;5.57;4.30;;;20.10;56.00;;;;;;8230192;28;20691;-79
2023/05/20 07:18:49;;;;;;;5.82;4.30;;;20.10;56.00;;;;;;8230073;28;20306;-79
2023/05/20 07:22:50;;;;;;;4.67;3.77;;;20.10;55.90;;;;;;8212588;28;20023;-79
2023/05/20 07:26:50;;;;;;;5.10;3.97;;;20.10;55.90;;;;;;8228869;28;20640;-79
2023/05/20 07:30:51;;;;;;;6.65;4.50;;;20.10;55.90;;;;;;8228692;28;20038;-79
2023/05/20 07:34:52;;;;;;;5.25;4.30;;;20.10;55.90;;;;;;8228103;28;20035;-79
2023/05/20 07:38:53;;;;;;;6.10;4.18;;;20.10;55.90;;;;;;8228211;28;20058;-79
2023/05/20 07:42:53;;;;;;;4.43;3.63;;;20.10;56.00;;;;;;8228592;28;20035;-79
2023/05/20 07:46:54;;;;;;;5.30;3.63;;;20.10;56.00;;;;;;8228388;28;20027;-79
2023/05/20 07:50:58;;;;;;;5.32;4.30;;;20.10;56.00;;;;;;8196094;28;20274;-79
2023/05/20 07:54:59;;;;;;;5.82;4.40;;;20.10;56.00;;;;;;8212855;28;20035;-79
2023/05/20 07:59:02;;;;;;;4.60;4.07;;;20.10;56.00;;;;;;8227850;28;20030;-79
2023/05/20 08:03:02;;;;;;;6.43;4.38;;;20.10;56.00;;;;;;8195902;28;20031;-79
2023/05/20 08:07:03;;;;;;;5.57;3.70;;;20.10;56.00;;;;;;8228392;28;20027;-80
2023/05/20 08:11:04;;;;;;;5.65;3.88;;;20.10;56.00;;;;;;8228090;28;20038;-79
2023/05/20 08:15:05;;;;;;;6.18;4.50;;;20.10;56.00;;;;;;8212221;28;20031;-79
2023/05/20 08:19:06;;;;;;;;;;;20.10;56.00;;;;;;8230158;28;20035;-79
2023/05/20 08:23:07;;;;;;;6.53;4.07;;;20.10;56.00;;;;;;8233706;28;19914;-79
2023/05/20 08:27:07;;;;;;;4.45;3.65;;;20.00;56.00;;;;;;8234310;28;20034;-79
2023/05/20 08:31:08;;;;;;;4.88;3.80;;;20.00;56.00;;;;;;8217869;28;20063;-79
2023/05/20 08:35:09;;;;;;;4.25;3.80;;;20.00;56.00;;;;;;8233813;28;20126;-79
2023/05/20 08:39:10;;;;;;;5.13;3.55;;;20.00;56.00;;;;;;8233506;28;20111;-79
2023/05/20 08:43:10;;;;;;;5.77;4.43;;;20.00;56.00;;;;;;8233510;28;20027;-79
2023/05/20 08:47:11;;;;;;;4.53;3.40;;;20.00;56.00;;;;;;8219032;28;20427;-79
2023/05/20 08:51:14;;;;;;;5.20;4.00;;;20.00;56.00;;;;;;8236232;28;20324;-79
2023/05/20 08:55:25;;;;;;;4.15;3.60;;;20.00;56.00;;;;;;8236395;28;20031;-79
2023/05/20 08:59:26;;;;;;;5.45;3.80;;;20.00;56.00;;;;;;8248501;28;20082;-79
2023/05/20 09:03:27;;;;;;;4.10;3.45;;;20.00;56.00;;;;;;8244261;28;20034;-79
2023/05/20 09:07:28;;;;;;;4.32;3.50;;;20.00;56.10;;;;;;8260112;28;20046;-79
2023/05/20 09:11:29;;;;;;;4.63;3.67;;;20.00;56.10;;;;;;8276169;28;20023;-79
2023/05/20 09:15:31;;;;;;;4.38;3.65;;;20.00;56.00;;;;;;8259742;28;20030;-79
2023/05/20 09:19:32;;;;;;;4.65;3.63;;;20.10;56.00;;;;;;8273652;28;20035;-79
2023/05/20 09:23:35;;;;;;;;;;;20.10;55.90;;;;;;8260137;28;20011;-79
2023/05/20 09:27:36;;;;;;;3.88;3.30;;;20.10;55.80;;;;;;8247355;28;20423;-79
2023/05/20 09:31:37;;;;;;;5.13;3.60;;;20.10;55.80;;;;;;8232786;28;20452;-79
2023/05/20 09:35:38;;;;;;;4.15;3.53;;;20.10;55.80;;;;;;8217428;28;20317;-79
2023/05/20 09:40:02;;;;;;;4.23;3.60;;;20.10;55.80;;;;;;8216291;28;20066;-79
2023/05/20 09:44:05;;;;;;;4.03;3.25;;;20.10;55.80;;;;;;8233098;28;20362;-79
2023/05/20 09:48:09;;;;;;;5.80;3.63;;;20.10;56.40;;;;;;8231858;28;20129;-79
2023/05/20 09:52:11;;;;;;;3.63;2.90;;;20.10;55.90;;;;;;8231428;28;20378;-79
2023/05/20 09:56:11;;;;;;;4.07;3.35;;;20.10;55.90;;;;;;8231716;28;20559;-79
2023/05/20 10:00:16;;;;;;;4.57;3.45;;;20.00;55.80;;;;;;8231135;28;20386;-79
2023/05/20 10:04:18;;;;;;;4.30;3.45;;;20.00;55.90;;;;;;8233388;28;20520;-79
2023/05/20 10:08:31;;;;;;;3.90;3.40;;;20.10;55.90;;;;;;8230939;28;20363;-79
2023/05/20 10:12:53;;;;;;;4.03;2.95;;;20.10;55.90;;;;;;8214574;28;20019;-79
2023/05/20 10:17:09;;;;;;;4.13;3.35;;;20.00;55.90;;;;;;8230006;28;20026;-79
2023/05/20 10:21:17;;;;;;;4.40;3.10;;;20.00;55.90;;;;;;8230328;28;20103;-79
2023/05/20 10:25:27;;;;;;;3.45;3.00;;;20.10;56.00;;;;;;8214663;28;20074;-79
2023/05/20 10:29:28;;;;;;;3.70;2.97;;;20.00;55.90;;;;;;8230163;28;20039;-79
2023/05/20 10:33:29;;;;;;;;;;;20.00;55.90;;;;;;8230475;28;20042;-79
2023/05/20 10:37:32;;;;;;;4.87;3.37;;;20.00;55.90;;;;;;8229894;28;19918;-79
2023/05/20 10:41:33;;;;;;;3.72;3.00;;;20.00;56.00;;;;;;8230722;28;20074;-79
2023/05/20 10:45:36;;;;;;;3.92;3.22;;;20.00;56.00;;;;;;8229357;28;20035;-79
2023/05/20 10:49:46;;;;;;;4.55;3.58;;;20.00;56.00;;;;;;8197761;28;20120;-79
2023/05/20 10:53:47;;;;;;;3.78;3.15;;;20.00;55.90;;;;;;8230058;28;20035;-79
2023/05/20 10:57:47;;;;;;;3.72;3.25;;;20.00;56.00;;;;;;8212939;28;20162;-79
2023/05/20 11:01:49;;;;;;;4.05;3.50;;;20.00;56.00;;;;;;8230537;28;20122;-79
2023/05/20 11:05:49;;;;;;;;;;;20.00;56.00;;;;;;8213347;28;20042;-79
2023/05/20 11:09:50;;;;;;;3.97;3.57;;;20.00;56.00;;;;;;8228956;28;20017;-79
2023/05/20 11:13:54;;;;;;;3.30;2.97;;;20.10;56.00;;;;;;8228995;28;20515;-79
2023/05/20 11:17:56;;;;;;;5.35;3.20;;;20.10;55.90;;;;;;8230006;28;20035;-79
2023/05/20 11:21:56;;;;;;;3.90;3.10;;;20.10;55.90;;;;;;8228427;28;20555;-79
2023/05/20 11:25:57;;;;;;;2.93;2.70;;;20.10;55.80;;;;;;8212510;28;20408;-80
2023/05/20 11:29:58;;;;;;;3.65;3.05;;;20.10;55.70;;;;;;8228488;28;20043;-80
2023/05/20 11:34:03;;;;;;;3.60;3.00;;;20.10;55.80;;;;;;8212170;28;20039;-80
2023/05/20 11:38:05;;;;;;;3.17;2.67;;;20.10;55.80;;;;;;8212756;28;20062;-80
2023/05/20 11:42:05;;;;;;;2.97;2.60;;;20.10;55.80;;;;;;8244348;28;20031;-80
2023/05/20 11:46:06;;;;;;;3.75;2.92;;;20.10;55.70;;;;;;8212188;28;20094;-80
2023/05/20 11:50:08;;;;;;;3.43;2.93;;;20.10;55.70;;;;;;8228448;28;20034;-80
2023/05/20 11:54:10;;;;;;;4.22;3.00;;;20.10;55.80;;;;;;8196269;28;20773;-80
2023/05/20 11:58:10;;;;;;;3.28;2.97;;;20.10;55.80;;;;;;8185159;29;20035;-80
2023/05/20 12:02:11;;;;;;;3.70;2.97;;;20.10;55.80;;;;;;8186742;29;20027;-80
2023/05/20 12:06:12;;;;;;;2.90;2.57;;;20.10;55.80;;;;;;8202683;28;20050;-80
2023/05/20 12:10:13;;;;;;;3.22;2.47;;;20.10;55.80;;;;;;8202614;29;20425;-80
2023/05/20 12:14:13;;;;;;;3.65;2.78;;;20.10;55.80;;;;;;8202598;29;20553;-80
2023/05/20 12:18:14;;;;;;;3.22;2.83;;;20.10;55.80;;;;;;8202048;29;20039;-80
2023/05/20 12:22:15;;;;;;;4.88;3.20;;;20.10;55.80;;;;;;8206312;28;20328;-80
2023/05/20 12:26:15;;;;;;;3.33;2.80;;;20.10;55.80;;;;;;8233687;28;20095;-80
2023/05/20 12:30:20;;;;;;;3.22;2.92;;;20.10;55.90;;;;;;8217660;28;20771;-80
2023/05/20 12:34:21;;;;;;;3.13;2.63;;;20.10;55.90;;;;;;8234846;28;20485;-80
2023/05/20 12:38:22;;;;;;;2.97;2.67;;;20.10;55.90;;;;;;8217325;28;20410;-80
2023/05/20 12:42:22;;;;;;;3.10;2.80;;;20.00;55.80;;;;;;8233608;28;20489;-80
2023/05/20 12:46:23;;;;;;;3.10;2.80;;;20.00;55.80;;;;;;8233440;28;20070;-80
2023/05/20 12:50:24;;;;;;;3.03;2.72;;;20.00;55.90;;;;;;8233053;28;20787;-80
2023/05/20 12:54:27;;;;;;;3.33;2.63;;;20.00;55.90;;;;;;8217819;28;20486;-79
2023/05/20 12:58:27;;;;;;;3.67;2.95;;;20.00;55.90;;;;;;8200757;29;20039;-80
2023/05/20 13:02:28;;;;;;;5.00;3.00;;;20.00;56.00;;;;;;8200827;29;20026;-80
2023/05/20 13:06:30;;;;;;;3.53;2.92;;;20.00;56.00;;;;;;8184405;28;20645;-80
2023/05/20 13:10:31;;;;;;;3.55;2.72;;;20.00;55.90;;;;;;8200204;29;20067;-80
2023/05/20 13:14:32;;;;;;;3.33;2.58;;;20.10;55.80;;;;;;8200095;28;20068;-80
2023/05/20 13:18:33;;;;;;;3.10;2.70;;;20.10;55.80;;;;;;8216409;28;20054;-80
2023/05/20 13:22:33;;;;;;;3.17;2.60;;;20.10;55.70;;;;;;8159531;28;20026;-80
2023/05/20 13:26:34;;;;;;;3.28;2.78;;;20.10;55.70;;;;;;8216293;28;20134;-80
2023/05/20 13:30:35;;;;;;;3.22;2.60;;;20.10;55.70;;;;;;8216055;28;20035;-80
2023/05/20 13:34:36;;;;;;;2.85;2.20;;;20.10;55.70;;;;;;8231800;28;20035;-80
2023/05/20 13:38:36;;;;;;;;;;;20.10;55.70;;;;;;8233392;28;20515;-79
2023/05/20 13:42:37;;;;;;;4.67;3.67;;;20.10;55.90;;;;;;8215051;28;20300;-80
2023/05/20 13:46:38;;;;;;;5.80;4.30;;;20.10;55.90;;;;;;8231580;28;20082;-79
2023/05/20 13:50:38;;;;;;;5.35;3.95;;;20.10;55.60;;;;;;8215407;28;20656;-80
2023/05/20 13:54:41;;;;;;;6.03;4.80;;;20.20;55.50;;;;;;8215942;28;20050;-80
2023/05/20 13:58:42;;;;;;;6.72;4.32;;;20.20;55.40;;;;;;8199113;29;20370;-80
2023/05/20 14:02:43;;;;;;;5.43;4.13;;;20.20;55.00;;;;;;8215129;28;20257;-80
2023/05/20 14:06:43;;;;;;;4.95;3.63;;;20.20;55.00;;;;;;8199202;29;20445;-80
2023/05/20 14:10:44;;;;;;;6.18;4.85;;;20.20;54.70;;;;;;8198863;29;20038;-80
2023/05/20 14:14:44;;;;;;;9.18;4.82;;;20.20;54.70;;;;;;8201589;28;20478;-80
2023/05/20 14:18:45;;;;;;;6.65;5.03;;;20.20;54.90;;;;;;8214116;28;20089;-80
2023/05/20 14:22:46;;;;;;;5.93;4.93;;;20.20;54.40;;;;;;8191570;28;20081;-81
2023/05/20 14:26:46;;;;;;;6.43;4.57;;;20.20;54.30;;;;;;8236042;28;20284;-81
2023/05/20 14:30:47;;;;;;;7.20;5.07;;;20.20;54.40;;;;;;8222821;28;20318;-80
2023/05/20 14:34:48;;;;;;;6.07;4.43;;;20.20;54.40;;;;;;8200494;28;20112;-80
2023/05/20 14:38:49;;;;;;;6.03;4.90;;;20.20;54.40;;;;;;8211511;28;20036;-80
2023/05/20 14:42:49;;;;;;;7.60;4.85;;;20.20;54.30;;;;;;8165547;29;20498;-80
2023/05/20 14:46:50;;;;;;;7.53;5.70;;;20.20;54.20;;;;;;8181339;29;20049;-79
2023/05/20 14:50:51;;;;;;;7.13;5.63;;;20.20;54.00;;;;;;8202406;28;20042;-79
2023/05/20 14:54:51;;;;;;;6.50;4.97;;;20.20;53.90;;;;;;8229655;28;20424;-79
2023/05/20 14:58:52;;;;;;;6.95;5.13;;;20.20;54.10;;;;;;8228416;28;20461;-79
2023/05/20 15:02:53;;;;;;;6.15;4.45;;;20.20;54.20;;;;;;8228488;28;20031;-79
2023/05/20 15:06:53;;;;;;;7.05;4.97;;;20.20;54.30;;;;;;8261676;28;20050;-79
2023/05/20 15:10:54;;;;;;;6.20;4.90;;;20.10;54.40;;;;;;8227584;28;20039;-80
2023/05/20 15:14:55;;;;;;;7.07;5.10;;;20.20;54.50;;;;;;8212888;28;20042;-80
2023/05/20 15:18:56;;;;;;;7.10;4.63;;;20.20;54.30;;;;;;8228361;28;20066;-81
2023/05/20 15:22:57;;;;;;;5.68;4.50;;;20.20;54.20;;;;;;8212732;28;20031;-80
2023/05/20 15:26:57;;;;;;;8.15;5.57;;;20.20;54.20;;;;;;8229642;28;20252;-80
2023/05/20 15:30:58;;;;;;;6.22;4.88;;;20.30;54.20;;;;;;8211660;28;20090;-80
2023/05/20 15:35:00;;;;;;;8.13;5.38;;;20.30;54.20;;;;;;8219178;28;1198198;-81
2023/05/20 15:39:01;;;;;;;6.20;5.13;;;20.30;54.10;;;;;;8245401;28;20038;-80
2023/05/20 15:43:02;;;;;;;6.55;4.90;;;20.30;54.00;;;;;;8212838;28;20038;-80
2023/05/20 15:47:04;;;;;;;6.28;4.95;;;20.30;54.00;;;;;;8213163;28;20042;-80
2023/05/20 15:51:05;;;;;;;7.00;5.53;;;20.30;53.80;;;;;;8229083;28;20035;-80
2023/05/20 15:55:06;;;;;;;7.22;5.30;;;20.30;53.80;;;;;;8229427;28;20082;-80
2023/05/20 15:59:07;;;;;;;7.65;5.60;;;20.30;53.80;;;;;;8196671;28;20062;-80
2023/05/20 16:03:09;;;;;;;6.50;4.97;;;20.30;53.80;;;;;;8196317;29;20032;-81
2023/05/20 16:07:10;;;;;;;8.02;6.15;;;20.30;53.80;;;;;;8196267;28;20279;-80
2023/05/20 16:11:10;;;;;;;11.80;5.72;;;20.30;53.80;;;;;;8196192;29;20038;-80
2023/05/20 16:15:11;;;;;;;8.80;5.63;;;20.30;53.80;;;;;;8196139;29;20031;-80
2023/05/20 16:19:12;;;;;;;6.03;4.68;;;20.30;53.90;;;;;;8164006;29;20811;-80
2023/05/20 16:23:12;;;;;;;6.97;5.17;;;20.20;53.90;;;;;;8208302;28;20035;-80
2023/05/20 16:27:13;;;;;;;6.37;4.87;;;20.20;54.10;;;;;;8228008;28;20282;-80
2023/05/20 16:31:14;;;;;;;6.45;4.72;;;20.20;54.20;;;;;;8228652;28;20294;-80
2023/05/20 16:35:15;;;;;;;8.50;5.47;;;20.10;54.20;;;;;;8228860;28;20059;-80
2023/05/20 16:39:16;;;;;;;6.57;5.20;;;20.10;54.40;;;;;;8211785;28;20089;-80
2023/05/20 16:43:16;;;;;;;6.75;5.03;;;20.10;54.50;;;;;;8231897;28;20027;-80
2023/05/20 16:47:17;;;;;;;6.40;4.70;;;20.10;54.60;;;;;;8217177;28;20042;-80
2023/05/20 16:51:18;;;;;;;7.53;5.50;;;20.10;54.70;;;;;;8233310;28;20043;-80
2023/05/20 16:55:18;;;;;;;6.80;5.43;;;20.00;54.60;;;;;;8234190;28;20030;-80
2023/05/20 16:59:19;;;;;;;5.25;4.75;;;20.00;55.20;;;;;;8218992;28;20560;-80
2023/05/20 17:03:20;;;;;;;5.75;4.60;;;20.00;54.70;;;;;;8219479;28;20046;-80
2023/05/20 17:07:20;;;;;;;5.95;4.78;;;20.00;54.70;;;;;;8242711;28;20057;-80
2023/05/20 17:11:21;;;;;;;5.65;4.50;;;20.00;54.80;;;;;;8275983;28;20015;-80
2023/05/20 17:15:22;;;;;;;5.43;4.15;;;20.00;54.90;;;;;;8276290;28;20045;-80
2023/05/20 17:19:22;;;;;;;6.45;4.63;;;20.00;54.90;;;;;;8275899;28;20069;-81
2023/05/20 17:23:23;;;;;;;5.85;4.53;;;20.00;54.90;;;;;;8243103;28;20023;-80
2023/05/20 17:27:24;;;;;;;6.25;4.85;;;20.00;55.00;;;;;;8274797;28;20033;-80
2023/05/20 17:31:25;;;;;;;5.57;5.00;;;20.00;55.00;;;;;;8259081;28;20046;-81
2023/05/20 17:35:26;;;;;;;5.00;4.22;;;20.00;55.00;;;;;;8251203;28;20489;-81
2023/05/20 17:39:27;;;;;;;5.82;4.18;;;20.00;55.00;;;;;;8233236;28;20045;-81
2023/05/20 17:43:27;;;;;;;5.50;4.82;;;20.00;55.00;;;;;;8200136;28;20485;-80
2023/05/20 17:47:28;;;;;;;5.55;4.40;;;19.90;55.00;;;;;;8216260;28;20041;-81
2023/05/20 17:51:30;;;;;;;5.22;4.40;;;19.90;55.60;;;;;;8215740;28;20039;-80
2023/05/20 17:55:35;;;;;;;4.53;3.80;;;19.90;55.10;;;;;;8198270;28;20085;-81
2023/05/20 17:59:36;;;;;;;5.55;4.32;;;19.90;55.10;;;;;;8215108;28;20038;-80
2023/05/20 18:03:38;;;;;;;6.57;3.97;;;19.90;55.10;;;;;;8199874;28;20031;-81
2023/05/20 18:07:39;;;;;;;4.97;4.20;;;19.90;55.20;;;;;;8214983;28;20496;-81
2023/05/20 18:11:40;;;;;;;6.97;4.78;;;19.90;55.20;;;;;;8215018;28;20444;-80
2023/05/20 18:15:41;;;;;;;4.88;3.97;;;19.90;55.20;;;;;;8230688;28;20114;-80
2023/05/20 18:19:41;;;;;;;3.97;3.55;;;19.90;55.20;;;;;;8214463;28;20030;-80
2023/05/20 18:23:42;;;;;;;4.47;3.88;;;19.90;55.20;;;;;;8214569;28;20114;-80
2023/05/20 18:27:42;;;;;;;5.25;4.22;;;19.90;55.20;;;;;;8231473;28;20062;-80
2023/05/20 18:31:43;;;;;;;4.68;3.90;;;19.90;55.30;;;;;;8214280;28;20551;-80
2023/05/20 18:35:44;;;;;;;3.97;3.53;;;19.90;55.30;;;;;;8230120;28;20051;-80
2023/05/20 18:39:44;;;;;;;4.30;3.67;;;19.90;55.30;;;;;;8231274;28;20038;-80
2023/05/20 18:43:45;;;;;;;5.22;4.10;;;19.90;55.30;;;;;;8230173;28;20278;-80
2023/05/20 18:47:46;;;;;;;5.10;3.80;;;19.90;55.30;;;;;;8229937;28;20053;-80
2023/05/20 18:51:46;;;;;;;5.40;4.07;;;19.90;55.30;;;;;;8229724;28;20035;-81
2023/05/20 18:55:47;;;;;;;4.22;3.50;;;19.90;55.30;;;;;;8213351;28;20093;-80
2023/05/20 18:59:48;;;;;;;4.72;3.95;;;19.90;55.30;;;;;;8229215;28;20493;-80
2023/05/20 19:03:48;;;;;;;4.15;3.75;;;19.90;55.30;;;;;;8228995;28;20034;-80
2023/05/20 19:07:49;;;;;;;4.53;4.10;;;19.90;55.30;;;;;;8212920;28;20031;-81
2023/05/20 19:11:54;;;;;;;5.43;3.53;;;19.90;55.40;;;;;;8212921;28;20057;-80
2023/05/20 19:15:58;;;;;;;5.72;3.80;;;19.90;55.30;;;;;;8230239;28;20034;-81
2023/05/20 19:19:59;;;;;;;4.82;4.05;;;19.90;55.40;;;;;;8228704;28;20070;-80
2023/05/20 19:23:59;;;;;;;4.82;3.78;;;19.90;55.40;;;;;;8197101;28;20031;-80
2023/05/20 19:28:00;;;;;;;4.75;3.20;;;19.90;55.60;;;;;;8196829;29;20358;-80
2023/05/20 19:32:01;;;;;;;4.25;3.80;;;19.90;55.40;;;;;;8196850;29;20090;-80
2023/05/20 19:36:01;;;;;;;4.20;3.58;;;20.00;55.40;;;;;;8196500;28;20395;-81
2023/05/20 19:40:03;;;;;;;3.97;3.45;;;20.00;55.20;;;;;;8180566;29;20067;-80
2023/05/20 19:44:04;;;;;;;4.32;3.47;;;20.00;55.10;;;;;;8196755;29;20063;-81
2023/05/20 19:48:05;;;;;;;;;;;20.10;55.10;;;;;;8212711;28;20398;-80
2023/05/20 19:52:06;;;;;;;4.07;3.30;;;20.10;55.10;;;;;;8199391;28;19906;-80
2023/05/20 19:56:07;;;;;;;4.78;4.15;;;20.10;55.10;;;;;;8228453;28;20031;-80
2023/05/20 20:00:10;;;;;;;4.72;3.70;;;20.10;55.10;;;;;;8211627;28;20074;-81
2023/05/20 20:04:11;;;;;;;3.50;3.20;;;20.10;55.10;;;;;;8212719;28;20026;-81
2023/05/20 20:08:12;;;;;;;4.68;3.47;;;20.10;55.10;;;;;;8212426;28;20126;-81
2023/05/20 20:12:13;;;;;;;3.73;3.33;;;20.10;55.10;;;;;;8228289;28;20056;-81
2023/05/20 20:16:14;;;;;;;4.40;3.40;;;20.00;55.10;;;;;;8229628;28;20835;-81
2023/05/20 20:20:15;;;;;;;4.13;3.40;;;20.00;55.10;;;;;;8235725;28;20397;-80
2023/05/20 20:24:16;;;;;;;;;;;20.00;55.20;;;;;;8218740;28;20482;-80
2023/05/20 20:28:17;;;;;;;3.73;3.30;;;20.00;55.20;;;;;;8204186;29;20269;-80
2023/05/20 20:32:17;;;;;;;3.83;3.30;;;20.00;55.20;;;;;;8185845;29;20019;-80
2023/05/20 20:36:18;;;;;;;4.20;3.23;;;20.00;55.20;;;;;;8185615;28;20047;-81
2023/05/20 20:40:24;;;;;;;3.85;3.33;;;20.00;55.20;;;;;;8201512;29;20302;-80
2023/05/20 20:44:25;;;;;;;4.25;3.17;;;20.00;55.30;;;;;;8202335;29;20039;-80
2023/05/20 20:48:26;;;;;;;3.35;2.97;;;20.00;55.30;;;;;;8185374;29;20497;-80
2023/05/20 20:52:27;;;;;;;3.78;3.17;;;20.00;55.30;;;;;;8190722;28;20557;-81
2023/05/20 20:56:28;;;;;;;3.95;3.40;;;20.00;55.30;;;;;;8232416;28;20069;-80